Terminal Aerodrome Forecast
Issued by NWS Wilmington, OH

Current Version | Previous Version | Graphics & Text | Print | Product List | Glossary On
Versions: 1 2 3 4 5 6 7 8 9 10 11 12 13 14 15 16 17 18 19 20 21 22 23 24 25 26 27 28 29
000
FTUS41 KILN 281137
TAFDAY
TAF
KDAY 281137Z 2812/2912 15008KT P6SM SCT130 OVC220
     FM282100 15009KT P6SM VCSH SCT035 BKN180
     FM290200 13010KT P6SM -SHRA VCTS OVC028CB
     FM290600 19009KT P6SM VCTS OVC028CB WS020/21045KT
     FM290800 20008KT P6SM VCSH OVC015=

USA.gov is the U.S. government's official web portal to all federal, state and local government web resources and services.